createdAt,value
2019-04-21T00:01:05.712Z,71.64
2019-04-21T00:03:38.431Z,71.53
2019-04-21T00:06:24.972Z,72.14
2019-04-21T00:08:56.611Z,72.30
2019-04-21T00:11:26.457Z,72.91
2019-04-21T00:13:47.001Z,73.14
2019-04-21T00:16:07.465Z,73.29
2019-04-21T00:18:48.494Z,73.28
2019-04-21T00:21:21.158Z,73.53
2019-04-21T00:23:56.145Z,73.45
2019-04-21T00:26:31.766Z,73.64
2019-04-21T00:29:04.098Z,73.41
2019-04-21T00:31:30.899Z,73.63
2019-04-21T00:33:45.992Z,73.15
2019-04-21T00:36:18.580Z,73.29
2019-04-21T00:39:14.356Z,72.80
2019-04-21T00:41:40.238Z,72.63
2019-04-21T00:43:57.065Z,72.64
2019-04-21T00:46:32.360Z,72.82
2019-04-21T00:49:03.106Z,72.70
2019-04-21T00:51:46.638Z,73.04
2019-04-21T00:54:16.755Z,73.04
2019-04-21T00:56:45.577Z,72.64
2019-04-21T00:59:18.018Z,71.96
2019-04-21T01:01:46.221Z,71.91
2019-04-21T01:04:16.884Z,72.05
2019-04-21T01:06:53.039Z,71.50
2019-04-21T01:09:09.427Z,71.06
2019-04-21T01:11:44.978Z,70.96
2019-04-21T01:14:22.701Z,70.19
2019-04-21T01:16:48.573Z,70.04
2019-04-21T01:19:17.351Z,70.34
2019-04-21T01:21:25.878Z,71.10
2019-04-21T01:24:04.891Z,70.82
2019-04-21T01:26:39.352Z,71.06
2019-04-21T01:29:13.264Z,71.23
2019-04-21T01:31:41.648Z,70.86
2019-04-21T01:34:14.838Z,70.76
2019-04-21T01:36:46.140Z,71.12
2019-04-21T01:39:21.298Z,70.10
2019-04-21T01:41:51.309Z,70.11
2019-04-21T01:44:25.741Z,71.17
2019-04-21T01:46:45.604Z,70.69
2019-04-21T01:49:11.558Z,71.71
2019-04-21T01:52:02.909Z,70.89
2019-04-21T01:54:33.265Z,71.39
2019-04-21T01:57:07.313Z,72.00
2019-04-21T01:59:35.349Z,72.23
2019-04-21T02:02:13.361Z,71.68
2019-04-21T02:07:14.777Z,71.86
2019-04-21T02:09:44.335Z,72.35
2019-04-21T02:12:13.516Z,72.90
2019-04-21T02:14:50.369Z,72.01
2019-04-21T02:17:14.568Z,73.00
2019-04-21T02:19:39.048Z,71.96
2019-04-21T02:22:10.790Z,72.43
2019-04-21T02:24:55.315Z,72.44
2019-04-21T02:27:19.225Z,72.73
2019-04-21T02:29:51.227Z,72.67
2019-04-21T02:32:26.090Z,72.74
2019-04-21T02:35:04.131Z,71.98
2019-04-21T02:37:38.343Z,72.92
2019-04-21T02:40:04.247Z,73.57
2019-04-21T02:42:32.898Z,73.35
2019-04-21T02:45:05.495Z,73.22
2019-04-21T02:50:21.593Z,73.14
2019-04-21T02:55:04.062Z,73.94
2019-04-21T02:57:35.066Z,73.93
2019-04-21T03:00:06.909Z,74.47
2019-04-21T03:07:47.869Z,73.12
2019-04-21T03:10:18.270Z,72.86
2019-04-21T03:20:19.047Z,73.95
2019-04-21T03:25:33.565Z,74.79
2019-04-21T03:30:31.887Z,75.24
2019-04-21T03:33:23.881Z,75.12
2019-04-21T03:38:13.086Z,74.60
2019-04-21T03:42:47.846Z,74.13
2019-04-21T03:45:32.721Z,74.53
2019-04-21T03:47:57.120Z,74.23
2019-04-21T03:50:27.898Z,74.50
2019-04-21T03:58:15.252Z,73.68
2019-04-21T04:01:04.140Z,74.11
2019-04-21T04:06:08.041Z,72.96
2019-04-21T04:09:12.794Z,72.71
2019-04-21T04:11:43.763Z,70.35
2019-04-21T04:16:31.285Z,67.56
2019-04-21T04:18:59.124Z,66.96
2019-04-21T04:21:37.563Z,67.70
2019-04-21T04:24:09.026Z,68.58
2019-04-21T04:26:31.562Z,68.83
2019-04-21T04:36:50.278Z,67.22
2019-04-21T04:49:40.452Z,66.53
2019-04-21T04:52:09.370Z,65.70
2019-04-21T04:54:41.749Z,65.45
2019-04-21T04:57:10.000Z,65.20
2019-04-21T05:02:15.272Z,64.05
2019-04-21T05:04:35.428Z,62.93
2019-04-21T05:12:17.541Z,62.42
2019-04-21T05:14:39.045Z,62.09
2019-04-21T05:17:15.760Z,61.93
2019-04-21T05:19:44.476Z,60.13
2019-04-21T05:22:12.170Z,60.09
2019-04-21T05:24:28.411Z,59.17
2019-04-21T05:26:59.565Z,58.82
2019-04-21T05:29:47.205Z,58.88
2019-04-21T05:35:01.604Z,58.32
2019-04-21T05:40:37.107Z,57.01
2019-04-21T05:43:17.134Z,54.95
2019-04-21T05:45:48.787Z,55.30
2019-04-21T05:48:23.156Z,55.81
2019-04-21T05:50:49.529Z,53.49
2019-04-21T05:53:31.453Z,51.58
2019-04-21T05:55:57.773Z,50.17
2019-04-21T05:58:29.912Z,50.92
2019-04-21T06:06:15.106Z,49.42
2019-04-21T06:08:46.913Z,48.75
2019-04-21T06:11:13.182Z,49.18
2019-04-21T06:13:48.176Z,49.33
2019-04-21T06:16:13.866Z,47.06
2019-04-21T06:18:47.963Z,48.43
2019-04-21T06:21:16.547Z,46.36
2019-04-21T06:23:45.604Z,46.41
2019-04-21T06:26:46.877Z,46.20
2019-04-21T06:31:40.920Z,45.48
2019-04-21T06:33:54.084Z,45.20
2019-04-21T06:39:27.454Z,45.14
2019-04-21T06:41:53.116Z,44.27
2019-04-21T06:44:27.315Z,44.38
2019-04-21T06:47:03.348Z,44.51
2019-04-21T06:49:27.552Z,45.24
2019-04-21T06:52:11.443Z,43.26
2019-04-21T06:54:33.887Z,44.04
2019-04-21T06:56:56.778Z,42.71
2019-04-21T06:59:34.141Z,42.57
2019-04-21T07:02:29.035Z,42.86
2019-04-21T07:04:36.814Z,42.11
2019-04-21T07:07:05.177Z,41.48
2019-04-21T07:09:36.421Z,41.01
2019-04-21T07:12:07.482Z,41.24
2019-04-21T07:20:02.092Z,39.80
2019-04-21T07:22:19.461Z,38.55
2019-04-21T07:24:42.898Z,39.65
2019-04-21T07:27:19.008Z,38.30
2019-04-21T07:29:50.677Z,37.99
2019-04-21T07:32:14.104Z,37.58
2019-04-21T07:34:52.282Z,37.81
2019-04-21T07:37:17.390Z,38.18
2019-04-21T07:39:51.211Z,36.72
2019-04-21T07:42:18.507Z,34.86
2019-04-21T07:44:46.354Z,35.66
2019-04-21T07:47:26.494Z,35.78
2019-04-21T07:50:00.856Z,36.94
2019-04-21T07:52:39.505Z,35.13
2019-04-21T07:57:31.576Z,33.62
2019-04-21T08:02:43.745Z,31.74
2019-04-21T08:05:13.525Z,31.48
2019-04-21T08:10:13.962Z,31.86
2019-04-21T08:12:43.191Z,30.73
2019-04-21T08:15:24.347Z,31.38
2019-04-21T08:17:47.197Z,31.20
2019-04-21T08:20:18.500Z,30.50
2019-04-21T08:22:51.679Z,31.11
2019-04-21T08:25:19.381Z,29.93
2019-04-21T08:27:55.534Z,29.44
2019-04-21T08:30:30.570Z,30.33
2019-04-21T08:38:16.823Z,27.26
2019-04-21T08:40:52.879Z,28.06
2019-04-21T08:43:30.621Z,28.27
2019-04-21T08:45:57.392Z,28.75
2019-04-21T08:48:22.421Z,27.80
2019-04-21T08:51:05.968Z,26.71
2019-04-21T08:53:35.767Z,26.91
2019-04-21T08:58:59.022Z,26.12
2019-04-21T09:01:30.354Z,23.58
2019-04-21T09:03:59.794Z,26.26
2019-04-21T09:06:52.574Z,25.24
2019-04-21T09:09:08.163Z,25.31
2019-04-21T09:11:36.339Z,24.27
2019-04-21T09:14:07.106Z,22.52
2019-04-21T09:16:30.637Z,23.35
2019-04-21T09:19:04.669Z,22.97
2019-04-21T09:21:43.649Z,21.88
2019-04-21T09:24:16.151Z,20.73
2019-04-21T09:26:46.047Z,20.79
2019-04-21T09:31:59.573Z,21.35
2019-04-21T09:35:24.053Z,20.74
2019-04-21T09:37:20.332Z,20.15
2019-04-21T09:39:45.198Z,21.46
2019-04-21T09:42:19.334Z,21.47
2019-04-21T09:44:51.983Z,20.28
2019-04-21T09:47:22.933Z,20.56
2019-04-21T09:49:50.203Z,22.09
2019-04-21T09:52:27.868Z,20.37
2019-04-21T09:55:01.785Z,19.30
2019-04-21T09:57:34.714Z,19.30
2019-04-21T10:00:04.857Z,21.76
2019-04-21T10:02:37.554Z,19.83
2019-04-21T10:05:07.782Z,21.46
2019-04-21T10:07:41.726Z,17.53
2019-04-21T10:10:12.807Z,20.30
2019-04-21T10:12:45.695Z,19.98
2019-04-21T10:15:16.803Z,20.58
2019-04-21T10:17:52.399Z,21.42
2019-04-21T10:20:22.383Z,19.57
2019-04-21T10:22:53.011Z,19.57
2019-04-21T10:25:38.668Z,19.18
2019-04-21T10:28:01.506Z,19.22
2019-04-21T10:30:31.277Z,19.65
2019-04-21T10:33:02.347Z,20.12
2019-04-21T10:35:35.324Z,18.73
2019-04-21T10:38:20.559Z,19.01
2019-04-21T10:40:41.451Z,20.09
2019-04-21T10:43:13.525Z,20.23
2019-04-21T10:45:50.619Z,19.94
2019-04-21T10:48:30.153Z,21.29
2019-04-21T10:51:10.654Z,18.51
2019-04-21T10:53:43.054Z,16.85
2019-04-21T10:59:12.100Z,17.83
2019-04-21T11:01:49.178Z,19.12
2019-04-21T11:04:25.435Z,17.86
2019-04-21T11:06:58.268Z,19.41
2019-04-21T11:09:26.370Z,19.41
2019-04-21T11:11:56.002Z,19.00
2019-04-21T11:14:25.434Z,19.14
2019-04-21T11:16:58.437Z,19.54
2019-04-21T11:19:30.677Z,17.47
2019-04-21T11:22:00.869Z,17.54
2019-04-21T11:24:31.409Z,19.26
2019-04-21T11:27:01.849Z,18.23
2019-04-21T11:29:31.399Z,19.79
2019-04-21T11:32:01.035Z,19.40
2019-04-21T11:34:43.165Z,20.02
2019-04-21T11:37:16.424Z,20.19
2019-04-21T11:39:52.116Z,20.19
2019-04-21T11:42:20.005Z,20.45
2019-04-21T11:44:49.538Z,19.36
2019-04-21T11:47:28.033Z,21.01
2019-04-21T11:49:57.316Z,18.77
2019-04-21T11:52:31.009Z,19.90
2019-04-21T11:55:00.893Z,18.77
2019-04-21T11:57:39.303Z,19.38
2019-04-21T12:00:05.970Z,19.62
2019-04-21T12:02:35.498Z,20.17
2019-04-21T12:08:02.046Z,18.12
2019-04-21T12:10:31.529Z,19.10
2019-04-21T12:13:04.230Z,19.54
2019-04-21T12:15:36.762Z,19.28
2019-04-21T12:18:06.091Z,17.96
2019-04-21T12:20:39.802Z,18.72
2019-04-21T12:23:14.319Z,19.77
2019-04-21T12:28:20.083Z,22.32
2019-04-21T12:30:51.686Z,18.58
2019-04-21T12:33:42.200Z,20.42
2019-04-21T12:36:13.782Z,21.31
2019-04-21T12:38:53.589Z,19.23
2019-04-21T12:41:26.577Z,18.79
2019-04-21T12:46:31.841Z,20.24
2019-04-21T12:49:13.885Z,19.31
2019-04-21T12:51:55.556Z,19.82
2019-04-21T12:54:33.563Z,16.98
2019-04-21T12:57:05.428Z,19.54
2019-04-21T12:59:42.658Z,19.44
2019-04-21T13:02:22.259Z,19.19
2019-04-21T13:04:53.016Z,19.28
2019-04-21T13:07:23.549Z,19.50
2019-04-21T13:10:00.119Z,18.22
2019-04-21T13:12:38.017Z,18.82
2019-04-21T13:15:08.803Z,18.82
2019-04-21T13:17:47.405Z,19.33
2019-04-21T13:20:21.123Z,19.42
2019-04-21T13:23:03.810Z,18.97
2019-04-21T13:25:38.087Z,19.27
2019-04-21T13:31:04.831Z,18.36
2019-04-21T13:33:52.198Z,20.26
2019-04-21T13:36:25.569Z,18.27
2019-04-21T13:39:44.361Z,17.62
2019-04-21T13:42:08.749Z,18.00
2019-04-21T13:44:30.811Z,18.01
2019-04-21T13:47:04.743Z,17.01
2019-04-21T13:49:37.211Z,18.97
2019-04-21T13:52:06.812Z,19.80
2019-04-21T13:54:45.557Z,19.51
2019-04-21T13:57:24.231Z,19.48
2019-04-21T14:00:05.682Z,19.14
2019-04-21T14:02:46.848Z,19.92
2019-04-21T14:05:18.108Z,17.81
2019-04-21T14:07:48.136Z,17.76
2019-04-21T14:10:21.892Z,20.97
2019-04-21T14:12:51.286Z,20.74
2019-04-21T14:15:22.101Z,20.78
2019-04-21T14:17:52.918Z,18.90
2019-04-21T14:20:31.520Z,17.89
2019-04-21T14:23:13.521Z,17.72
2019-04-21T14:25:37.644Z,18.53
2019-04-21T14:28:10.193Z,19.69
2019-04-21T14:30:44.140Z,18.97
2019-04-21T14:33:14.208Z,17.58
2019-04-21T14:35:47.142Z,18.16
2019-04-21T14:38:18.571Z,19.02
2019-04-21T14:40:48.677Z,18.70
2019-04-21T14:43:23.641Z,19.51
2019-04-21T14:45:54.738Z,20.03
2019-04-21T14:48:43.174Z,19.65
2019-04-21T14:51:14.495Z,21.54
2019-04-21T14:53:54.415Z,22.07
2019-04-21T14:56:25.043Z,20.19
2019-04-21T14:58:58.988Z,20.26
2019-04-21T15:01:29.910Z,20.05
2019-04-21T15:03:59.878Z,20.23
2019-04-21T15:06:29.648Z,18.94
2019-04-21T15:09:03.402Z,20.07
2019-04-21T15:11:35.987Z,20.07
2019-04-21T15:14:09.451Z,20.61
2019-04-21T15:16:42.776Z,20.31
2019-04-21T15:19:14.801Z,20.66
2019-04-21T15:21:44.678Z,21.46
2019-04-21T15:24:14.347Z,21.93
2019-04-21T15:26:46.534Z,21.50
2019-04-21T15:29:17.077Z,21.50
2019-04-21T15:31:46.724Z,20.27
2019-04-21T15:34:23.934Z,20.27
2019-04-21T15:36:57.970Z,21.43
2019-04-21T15:39:31.825Z,22.61
2019-04-21T15:42:02.718Z,23.17
2019-04-21T15:44:32.556Z,22.91
2019-04-21T15:47:02.110Z,23.09
2019-04-21T15:49:56.898Z,23.09
2019-04-21T15:52:22.146Z,20.96
2019-04-21T15:54:54.603Z,24.42
2019-04-21T15:57:40.580Z,22.46
2019-04-21T16:00:24.636Z,23.34
2019-04-21T16:03:00.422Z,22.89
2019-04-21T16:05:28.637Z,23.65
2019-04-21T16:07:58.216Z,23.56
2019-04-21T16:10:40.865Z,24.24
2019-04-21T16:13:03.481Z,24.05
2019-04-21T16:15:34.608Z,25.25
2019-04-21T16:18:05.599Z,25.94
2019-04-21T16:20:35.513Z,26.00
2019-04-21T16:23:06.689Z,26.24
2019-04-21T16:25:36.956Z,25.81
2019-04-21T16:28:06.966Z,25.80
2019-04-21T16:30:36.349Z,26.59
2019-04-21T16:33:06.019Z,26.63
2019-04-21T16:35:35.753Z,27.03
2019-04-21T16:38:06.094Z,27.06
2019-04-21T16:40:46.806Z,27.47
2019-04-21T16:43:07.990Z,28.22
2019-04-21T16:45:39.014Z,27.64
2019-04-21T16:48:09.491Z,27.29
2019-04-21T16:50:39.499Z,28.17
2019-04-21T16:53:16.706Z,27.98
2019-04-21T16:55:48.981Z,28.48
2019-04-21T16:58:28.756Z,28.40
2019-04-21T17:01:03.261Z,29.01
2019-04-21T17:03:30.635Z,29.50
2019-04-21T17:06:04.351Z,28.72
2019-04-21T17:08:31.834Z,29.45
2019-04-21T17:13:33.578Z,30.44
2019-04-21T17:16:30.064Z,30.08
2019-04-21T17:16:32.052Z,31.39
2019-04-21T17:18:47.636Z,31.23
2019-04-21T17:21:08.757Z,33.62
2019-04-21T17:23:38.440Z,35.68
2019-04-21T17:26:08.976Z,36.72
2019-04-21T17:28:38.605Z,36.00
2019-04-21T17:31:08.524Z,36.38
2019-04-21T17:33:39.224Z,35.11
2019-04-21T17:36:09.256Z,35.50
2019-04-21T17:38:39.722Z,34.29
2019-04-21T17:41:16.587Z,35.10
2019-04-21T17:43:41.637Z,34.08
2019-04-21T17:46:13.642Z,34.06
2019-04-21T17:48:42.944Z,34.95
2019-04-21T17:51:14.100Z,35.55
2019-04-21T17:53:49.390Z,35.04
2019-04-21T17:56:43.922Z,35.12
2019-04-21T17:59:02.901Z,35.56
2019-04-21T18:01:41.952Z,35.83
2019-04-21T18:04:24.118Z,36.80
2019-04-21T18:07:02.098Z,35.99
2019-04-21T18:09:45.418Z,36.74
2019-04-21T18:12:10.929Z,36.94
2019-04-21T18:14:22.623Z,37.52
2019-04-21T18:16:53.503Z,37.88
2019-04-21T18:19:27.896Z,37.94
2019-04-21T18:22:05.526Z,37.80
2019-04-21T18:24:45.949Z,37.73
2019-04-21T18:27:09.761Z,37.64
2019-04-21T18:29:37.121Z,38.66
2019-04-21T18:32:06.639Z,38.75
2019-04-21T18:34:42.872Z,40.49
2019-04-21T18:37:35.034Z,40.90
2019-04-21T18:40:06.712Z,41.68
2019-04-21T18:42:55.520Z,40.87
2019-04-21T18:48:14.344Z,42.17
2019-04-21T18:53:41.385Z,43.24
2019-04-21T18:55:59.913Z,44.21
2019-04-21T18:58:26.758Z,43.45
2019-04-21T19:01:04.517Z,44.02
2019-04-21T19:03:35.660Z,44.36
2019-04-21T19:06:08.773Z,44.28
2019-04-21T19:08:53.488Z,45.42
2019-04-21T19:11:18.912Z,44.94
2019-04-21T19:14:23.550Z,45.61
2019-04-21T19:16:43.162Z,43.67
2019-04-21T19:19:36.659Z,45.22
2019-04-21T19:21:40.562Z,47.06
2019-04-21T19:26:55.595Z,47.45
2019-04-21T19:29:19.901Z,50.02
2019-04-21T19:31:49.486Z,51.45
2019-04-21T19:34:07.734Z,52.71
2019-04-21T19:36:32.777Z,53.16
2019-04-21T19:39:10.122Z,53.61
2019-04-21T19:41:46.842Z,54.54
2019-04-21T19:44:24.664Z,54.98
2019-04-21T19:46:55.763Z,55.86
2019-04-21T19:49:27.831Z,55.41
2019-04-21T19:51:51.564Z,55.51
2019-04-21T19:54:20.216Z,56.76
2019-04-21T19:56:40.905Z,56.09
2019-04-21T19:59:14.035Z,56.12
2019-04-21T20:01:41.668Z,56.19
2019-04-21T20:04:12.377Z,56.61
2019-04-21T20:06:52.276Z,57.06
2019-04-21T20:09:28.135Z,57.38
2019-04-21T20:12:00.867Z,56.43
2019-04-21T20:14:51.017Z,57.18
2019-04-21T20:16:59.307Z,57.25
2019-04-21T20:19:19.222Z,57.02
2019-04-21T20:21:49.213Z,57.02
2019-04-21T20:24:25.070Z,57.25
2019-04-21T20:27:00.131Z,58.20
2019-04-21T20:29:37.476Z,57.78
2019-04-21T20:32:16.311Z,57.92
2019-04-21T20:34:46.139Z,57.75
2019-04-21T20:37:14.827Z,57.78
2019-04-21T20:39:28.322Z,57.82
2019-04-21T20:42:12.779Z,58.07
2019-04-21T20:44:45.137Z,58.17
2019-04-21T20:47:11.278Z,57.89
2019-04-21T20:49:38.555Z,58.65
2019-04-21T20:52:17.568Z,58.79
2019-04-21T20:54:48.119Z,58.60
2019-04-21T20:57:21.905Z,58.89
2019-04-21T20:59:44.448Z,58.46
2019-04-21T21:02:21.917Z,58.92
2019-04-21T21:04:45.794Z,59.22
2019-04-21T21:07:40.438Z,59.08
2019-04-21T21:10:00.522Z,59.72
2019-04-21T21:12:37.300Z,59.22
2019-04-21T21:14:56.766Z,59.45
2019-04-21T21:20:05.583Z,59.24
2019-04-21T21:22:29.159Z,58.10
2019-04-21T21:25:03.897Z,58.04
2019-04-21T21:27:32.161Z,58.95
2019-04-21T21:30:05.597Z,59.34
2019-04-21T21:32:38.074Z,59.84
2019-04-21T21:35:12.033Z,60.62
2019-04-21T21:37:42.774Z,61.02
2019-04-21T21:40:11.184Z,60.39
2019-04-21T21:42:29.573Z,60.13
2019-04-21T21:45:02.934Z,60.23
2019-04-21T21:47:46.239Z,59.81
2019-04-21T21:50:07.265Z,60.05
2019-04-21T21:52:39.823Z,60.20
2019-04-21T21:54:59.751Z,60.82
2019-04-21T21:57:34.150Z,61.34
2019-04-21T22:00:04.727Z,62.05
2019-04-21T22:02:35.969Z,62.20
2019-04-21T22:05:09.248Z,61.98
2019-04-21T22:07:35.571Z,61.87
2019-04-21T22:10:08.527Z,61.58
2019-04-21T22:12:49.126Z,61.76
2019-04-21T22:15:17.306Z,61.52
2019-04-21T22:18:06.050Z,61.93
2019-04-21T22:20:33.568Z,61.48
2019-04-21T22:22:54.278Z,61.77
2019-04-21T22:25:22.877Z,62.12
2019-04-21T22:27:48.706Z,61.68
2019-04-21T22:30:26.892Z,61.96
2019-04-21T22:32:57.105Z,62.78
2019-04-21T22:35:30.100Z,61.37
2019-04-21T22:38:13.988Z,62.11
2019-04-21T22:40:45.258Z,63.64
2019-04-21T22:45:55.866Z,63.07
2019-04-21T22:48:28.588Z,63.08
2019-04-21T22:50:56.517Z,64.28
2019-04-21T22:53:27.983Z,64.39
2019-04-21T22:56:05.814Z,64.20
2019-04-21T22:58:32.007Z,65.07
2019-04-21T23:01:01.928Z,65.23
2019-04-21T23:06:32.336Z,64.68
2019-04-21T23:09:01.506Z,64.84
2019-04-21T23:11:38.662Z,65.74
2019-04-21T23:14:06.518Z,64.38
2019-04-21T23:16:36.286Z,64.77
2019-04-21T23:19:20.076Z,64.40
2019-04-21T23:21:55.294Z,64.75
2019-04-21T23:24:33.089Z,65.32
2019-04-21T23:26:52.090Z,65.82
2019-04-21T23:29:39.589Z,66.24
2019-04-21T23:31:59.206Z,66.85
2019-04-21T23:34:19.757Z,66.95
2019-04-21T23:36:53.040Z,67.06
2019-04-21T23:39:21.575Z,67.09
2019-04-21T23:41:47.876Z,65.75
2019-04-21T23:44:18.810Z,64.81
2019-04-21T23:46:51.094Z,64.99
2019-04-21T23:49:31.927Z,65.02
2019-04-21T23:51:55.610Z,65.15
2019-04-21T23:54:20.318Z,65.31
2019-04-21T23:56:53.559Z,65.50
2019-04-21T23:59:24.919Z,65.58
